createdAt,value
2023-01-28T00:01:04.355Z,4.11
2023-01-28T00:03:30.790Z,4.07
2023-01-28T00:06:05.744Z,4.08
2023-01-28T00:08:33.775Z,4.05
2023-01-28T00:11:04.840Z,4.06
2023-01-28T00:13:31.969Z,4.09
2023-01-28T00:16:02.367Z,4.04
2023-01-28T00:18:29.259Z,4.00
2023-01-28T00:21:00.232Z,3.94
2023-01-28T00:23:28.427Z,3.83
2023-01-28T00:25:55.125Z,3.78
2023-01-28T00:28:22.248Z,3.78
2023-01-28T00:30:48.671Z,3.83
2023-01-28T00:33:15.127Z,3.91
2023-01-28T00:35:43.027Z,3.98
2023-01-28T00:38:10.557Z,4.03
2023-01-28T00:40:37.044Z,4.08
2023-01-28T00:43:03.481Z,4.11
2023-01-28T00:45:29.916Z,4.08
2023-01-28T00:47:56.310Z,4.05
2023-01-28T00:50:22.769Z,4.06
2023-01-28T00:52:49.209Z,4.07
2023-01-28T00:55:15.942Z,4.09
2023-01-28T00:57:42.592Z,4.01
2023-01-28T01:00:09.628Z,3.99
2023-01-28T01:02:36.104Z,4.01
2023-01-28T01:05:02.557Z,4.03
2023-01-28T01:07:43.449Z,3.99
2023-01-28T01:10:14.001Z,3.92
2023-01-28T01:12:41.120Z,3.92
2023-01-28T01:15:10.249Z,3.92
2023-01-28T01:17:37.802Z,3.84
2023-01-28T01:20:09.061Z,3.77
2023-01-28T01:22:36.638Z,3.76
2023-01-28T01:25:04.698Z,3.75
2023-01-28T01:27:31.828Z,3.79
2023-01-28T01:29:58.930Z,3.86
2023-01-28T01:32:30.605Z,3.91
2023-01-28T01:34:57.094Z,3.90
2023-01-28T01:37:25.203Z,3.85
2023-01-28T01:39:51.761Z,3.75
2023-01-28T01:42:18.900Z,3.69
2023-01-28T01:45:12.618Z,3.71
2023-01-28T01:47:49.209Z,3.76
2023-01-28T01:50:22.383Z,3.81
2023-01-28T01:52:52.917Z,3.85
2023-01-28T01:55:24.483Z,3.81
2023-01-28T01:57:54.204Z,3.86
2023-01-28T02:00:20.706Z,3.83
2023-01-28T02:02:49.343Z,3.86
2023-01-28T02:05:19.995Z,3.85
2023-01-28T02:07:49.997Z,3.83
2023-01-28T02:10:17.925Z,3.85
2023-01-28T02:12:50.186Z,3.80
2023-01-28T02:15:22.711Z,3.75
2023-01-28T02:17:50.566Z,3.75
2023-01-28T02:20:26.011Z,3.71
2023-01-28T02:23:13.440Z,3.69
2023-01-28T02:26:14.384Z,3.69
2023-01-28T02:29:12.525Z,3.66
2023-01-28T02:31:52.106Z,3.61
2023-01-28T02:34:35.726Z,3.65
2023-01-28T02:37:27.582Z,3.66
2023-01-28T02:40:19.895Z,3.65
2023-01-28T02:42:46.438Z,3.68
2023-01-28T02:45:46.218Z,3.77
2023-01-28T02:48:14.962Z,3.82
2023-01-28T02:51:18.033Z,3.84
2023-01-28T02:53:59.856Z,3.87
2023-01-28T02:56:40.713Z,3.84
2023-01-28T02:59:30.341Z,3.80
2023-01-28T03:02:15.468Z,3.79
2023-01-28T03:05:03.150Z,3.83
2023-01-28T03:07:33.772Z,3.79
2023-01-28T03:10:04.300Z,3.75
2023-01-28T03:12:51.144Z,3.77
2023-01-28T03:15:50.545Z,3.78
2023-01-28T03:18:37.682Z,3.73
2023-01-28T03:21:26.987Z,3.68
2023-01-28T03:24:18.028Z,3.62
2023-01-28T03:27:21.130Z,3.60
2023-01-28T03:30:18.068Z,3.60
2023-01-28T03:33:03.910Z,3.60
2023-01-28T03:35:53.060Z,3.51
2023-01-28T03:38:23.462Z,3.50
2023-01-28T03:41:02.818Z,3.56
2023-01-28T03:43:30.929Z,3.62
2023-01-28T03:45:57.506Z,3.62
2023-01-28T03:48:26.609Z,3.63
2023-01-28T03:50:56.044Z,3.55
2023-01-28T03:53:24.291Z,3.53
2023-01-28T03:55:53.367Z,3.53
2023-01-28T03:58:22.795Z,3.55
2023-01-28T04:00:50.812Z,3.55
2023-01-28T04:03:19.466Z,3.54
2023-01-28T04:06:04.009Z,3.59
2023-01-28T04:08:52.829Z,3.64
2023-01-28T04:11:31.433Z,3.71
2023-01-28T04:14:00.878Z,3.74
2023-01-28T04:16:35.739Z,3.72
2023-01-28T04:19:02.247Z,3.68
2023-01-28T04:21:29.093Z,3.71
2023-01-28T04:23:55.601Z,3.72
2023-01-28T04:26:22.620Z,3.77
2023-01-28T04:28:49.133Z,3.66
2023-01-28T04:31:16.244Z,3.57
2023-01-28T04:33:54.309Z,3.58
2023-01-28T04:36:31.638Z,3.63
2023-01-28T04:39:11.715Z,3.66
2023-01-28T04:41:38.141Z,3.68
2023-01-28T04:44:13.720Z,3.67
2023-01-28T04:47:15.469Z,3.69
2023-01-28T04:49:50.257Z,3.69
2023-01-28T04:52:26.917Z,3.71
2023-01-28T04:55:04.611Z,3.72
2023-01-28T04:57:31.163Z,3.73
2023-01-28T04:59:58.883Z,3.65
2023-01-28T05:02:26.759Z,3.68
2023-01-28T05:04:53.350Z,3.68
2023-01-28T05:07:42.763Z,3.71
2023-01-28T05:10:10.365Z,3.74
2023-01-28T05:12:37.088Z,3.65
2023-01-28T05:15:07.737Z,3.64
2023-01-28T05:17:34.305Z,3.53
2023-01-28T05:20:01.213Z,3.44
2023-01-28T05:22:28.762Z,3.32
2023-01-28T05:25:10.349Z,3.26
2023-01-28T05:27:36.799Z,3.30
2023-01-28T05:30:03.912Z,3.37
2023-01-28T05:32:30.424Z,3.37
2023-01-28T05:34:56.974Z,3.38
2023-01-28T05:37:23.471Z,3.43
2023-01-28T05:39:53.401Z,3.49
2023-01-28T05:42:20.824Z,3.49
2023-01-28T05:44:48.522Z,3.50
2023-01-28T05:47:18.272Z,3.41
2023-01-28T05:50:06.387Z,3.37
2023-01-28T05:53:08.655Z,3.38
2023-01-28T05:55:36.633Z,3.42
2023-01-28T05:58:03.095Z,3.43
2023-01-28T06:00:29.527Z,3.40
2023-01-28T06:02:55.954Z,3.36
2023-01-28T06:05:23.681Z,3.42
2023-01-28T06:07:50.385Z,3.48
2023-01-28T06:10:19.949Z,3.54
2023-01-28T06:12:47.115Z,3.54
2023-01-28T06:15:32.411Z,3.56
2023-01-28T06:18:01.732Z,3.55
2023-01-28T06:20:32.073Z,3.55
2023-01-28T06:22:59.895Z,3.55
2023-01-28T06:25:26.539Z,3.58
2023-01-28T06:27:53.707Z,3.61
2023-01-28T06:30:20.205Z,3.65
2023-01-28T06:32:46.671Z,3.61
2023-01-28T06:35:13.040Z,3.58
2023-01-28T06:37:39.732Z,3.61
2023-01-28T06:40:06.673Z,3.63
2023-01-28T06:42:33.032Z,3.67
2023-01-28T06:44:59.481Z,3.67
2023-01-28T06:47:25.877Z,3.67
2023-01-28T06:49:52.274Z,3.68
2023-01-28T06:52:18.732Z,3.69
2023-01-28T06:54:45.146Z,3.69
2023-01-28T06:57:11.616Z,3.71
2023-01-28T06:59:38.036Z,3.70
2023-01-28T07:02:04.476Z,3.69
2023-01-28T07:04:31.802Z,3.70
2023-01-28T07:06:58.243Z,3.70
2023-01-28T07:09:24.685Z,3.72
2023-01-28T07:11:51.109Z,3.73
2023-01-28T07:14:17.571Z,3.68
2023-01-28T07:16:43.953Z,3.66
2023-01-28T07:19:10.525Z,3.68
2023-01-28T07:21:36.924Z,3.66
2023-01-28T07:24:05.217Z,3.67
2023-01-28T07:26:31.780Z,3.67
2023-01-28T07:28:58.189Z,3.66
2023-01-28T07:31:24.624Z,3.70
2023-01-28T07:33:51.161Z,3.72
2023-01-28T07:36:17.590Z,3.71
2023-01-28T07:38:44.555Z,3.71
2023-01-28T07:41:10.963Z,3.66
2023-01-28T07:43:37.323Z,3.65
2023-01-28T07:46:03.876Z,3.61
2023-01-28T07:48:30.969Z,3.62
2023-01-28T07:51:00.195Z,3.64
2023-01-28T07:53:26.603Z,3.62
2023-01-28T07:55:58.085Z,3.61
2023-01-28T07:58:24.524Z,3.58
2023-01-28T08:00:50.965Z,3.51
2023-01-28T08:03:17.363Z,3.54
2023-01-28T08:05:52.871Z,3.51
2023-01-28T08:08:19.483Z,3.53
2023-01-28T08:10:46.553Z,3.56
2023-01-28T08:13:14.504Z,3.58
2023-01-28T08:15:41.343Z,3.57
2023-01-28T08:18:09.368Z,3.57
2023-01-28T08:20:36.494Z,3.60
2023-01-28T08:23:14.998Z,3.65
2023-01-28T08:25:41.728Z,3.68
2023-01-28T08:28:08.958Z,3.73
2023-01-28T08:30:38.030Z,3.76
2023-01-28T08:33:06.583Z,3.75
2023-01-28T08:35:33.875Z,3.79
2023-01-28T08:38:02.113Z,3.79
2023-01-28T08:40:29.167Z,3.80
2023-01-28T08:42:56.258Z,3.82
2023-01-28T08:45:27.630Z,3.89
2023-01-28T08:47:57.099Z,4.01
2023-01-28T08:50:25.258Z,4.06
2023-01-28T08:52:56.629Z,4.14
2023-01-28T08:55:23.773Z,4.25
2023-01-28T08:57:50.209Z,4.37
2023-01-28T09:00:17.789Z,4.47
2023-01-28T09:02:44.310Z,4.51
2023-01-28T09:05:11.536Z,4.53
2023-01-28T09:07:38.972Z,4.62
2023-01-28T09:10:06.184Z,4.67
2023-01-28T09:12:33.285Z,4.71
2023-01-28T09:14:59.716Z,4.70
2023-01-28T09:17:26.153Z,4.67
2023-01-28T09:19:52.562Z,4.62
2023-01-28T09:22:19.211Z,4.58
2023-01-28T09:24:45.655Z,4.70
2023-01-28T09:27:12.388Z,4.89
2023-01-28T09:29:38.807Z,5.02
2023-01-28T09:32:07.051Z,5.17
2023-01-28T09:34:33.916Z,5.26
2023-01-28T09:37:00.903Z,5.28
2023-01-28T09:39:28.456Z,5.26
2023-01-28T09:42:05.183Z,5.32
2023-01-28T09:44:57.405Z,5.26
2023-01-28T09:47:44.566Z,5.24
2023-01-28T09:50:23.125Z,5.27
2023-01-28T09:52:53.280Z,5.35
2023-01-28T09:55:31.250Z,5.38
2023-01-28T09:57:57.647Z,5.41
2023-01-28T10:00:33.365Z,5.41
2023-01-28T10:03:37.652Z,5.41
2023-01-28T10:06:16.302Z,5.39
2023-01-28T10:09:04.234Z,5.35
2023-01-28T10:11:39.592Z,5.36
2023-01-28T10:14:23.123Z,5.38
2023-01-28T10:17:05.701Z,5.39
2023-01-28T10:19:40.026Z,5.39
2023-01-28T10:22:15.733Z,5.34
2023-01-28T10:24:51.106Z,5.31
2023-01-28T10:27:24.343Z,5.37
2023-01-28T10:29:52.963Z,5.42
2023-01-28T10:32:30.376Z,5.42
2023-01-28T10:35:03.902Z,5.46
2023-01-28T10:37:39.995Z,5.50
2023-01-28T10:40:13.429Z,5.45
2023-01-28T10:42:39.978Z,5.38
2023-01-28T10:45:21.164Z,5.31
2023-01-28T10:47:56.089Z,5.32
2023-01-28T10:50:26.369Z,5.35
2023-01-28T10:53:03.837Z,5.46
2023-01-28T10:55:47.893Z,5.54
2023-01-28T10:58:23.839Z,5.56
2023-01-28T11:01:07.622Z,5.93
2023-01-28T11:03:37.024Z,5.91
2023-01-28T11:06:03.633Z,6.48
2023-01-28T11:08:43.502Z,6.61
2023-01-28T11:11:15.113Z,6.47
2023-01-28T11:13:50.651Z,6.30
2023-01-28T11:16:18.657Z,6.17
2023-01-28T11:18:53.991Z,5.98
2023-01-28T11:21:24.528Z,5.90
2023-01-28T11:23:59.087Z,5.87
2023-01-28T11:26:29.488Z,5.83
2023-01-28T11:28:56.149Z,5.82
2023-01-28T11:31:24.487Z,5.83
2023-01-28T11:33:57.647Z,5.83
2023-01-28T11:36:30.295Z,5.82
2023-01-28T11:39:19.791Z,5.85
2023-01-28T11:41:47.649Z,5.81
2023-01-28T11:44:27.596Z,5.77
2023-01-28T11:47:16.346Z,5.74
2023-01-28T11:50:20.522Z,5.75
2023-01-28T11:53:07.454Z,5.79
2023-01-28T11:55:44.886Z,5.84
2023-01-28T11:58:24.150Z,5.91
2023-01-28T12:01:09.064Z,5.99
2023-01-28T12:03:55.012Z,6.01
2023-01-28T12:06:52.552Z,6.02
2023-01-28T12:09:43.569Z,6.03
2023-01-28T12:12:26.128Z,6.17
2023-01-28T12:15:00.277Z,6.22
2023-01-28T12:17:44.896Z,6.21
2023-01-28T12:20:28.211Z,6.26
2023-01-28T12:23:20.065Z,6.29
2023-01-28T12:26:23.279Z,6.36
2023-01-28T12:29:12.094Z,6.40
2023-01-28T12:31:56.697Z,6.43
2023-01-28T12:34:44.818Z,6.50
2023-01-28T12:37:37.194Z,6.60
2023-01-28T12:40:40.388Z,6.75
2023-01-28T12:43:24.330Z,6.84
2023-01-28T12:46:10.796Z,6.76
2023-01-28T12:48:45.331Z,6.64
2023-01-28T12:51:38.983Z,6.44
2023-01-28T12:54:19.112Z,6.38
2023-01-28T12:56:56.377Z,6.44
2023-01-28T12:59:29.007Z,6.51
2023-01-28T13:02:13.502Z,6.58
2023-01-28T13:04:59.906Z,6.66
2023-01-28T13:07:50.745Z,6.74
2023-01-28T13:10:43.361Z,6.78
2023-01-28T13:13:38.278Z,6.80
2023-01-28T13:16:07.596Z,6.83
2023-01-28T13:18:40.194Z,6.83
2023-01-28T13:21:12.644Z,6.77
2023-01-28T13:23:41.204Z,6.76
2023-01-28T13:26:12.396Z,6.76
2023-01-28T13:28:38.889Z,6.78
2023-01-28T13:31:17.292Z,6.82
2023-01-28T13:34:08.512Z,6.91
2023-01-28T13:36:46.936Z,6.98
2023-01-28T13:39:13.354Z,6.99
2023-01-28T13:41:48.892Z,6.91
2023-01-28T13:44:29.125Z,6.86
2023-01-28T13:47:21.764Z,6.78
2023-01-28T13:49:54.897Z,6.67
2023-01-28T13:52:28.511Z,6.62
2023-01-28T13:55:00.367Z,6.56
2023-01-28T13:57:59.090Z,6.50
2023-01-28T14:00:54.914Z,6.46
2023-01-28T14:04:02.453Z,6.41
2023-01-28T14:06:45.004Z,6.37
2023-01-28T14:09:35.699Z,6.32
2023-01-28T14:12:08.925Z,6.26
2023-01-28T14:14:41.194Z,6.23
2023-01-28T14:17:35.794Z,6.17
2023-01-28T14:20:03.671Z,6.12
2023-01-28T14:22:30.088Z,6.10
2023-01-28T14:25:01.354Z,6.06
2023-01-28T14:27:35.230Z,6.06
2023-01-28T14:30:34.317Z,6.04
2023-01-28T14:33:01.582Z,6.00
2023-01-28T14:35:34.026Z,5.94
2023-01-28T14:38:07.883Z,5.93
2023-01-28T14:40:39.834Z,5.94
2023-01-28T14:43:09.284Z,6.00
2023-01-28T14:45:50.924Z,6.03
2023-01-28T14:48:40.984Z,6.09
2023-01-28T14:51:20.236Z,6.11
2023-01-28T14:53:58.922Z,6.11
2023-01-28T14:56:55.684Z,6.14
2023-01-28T14:59:43.752Z,6.13
2023-01-28T15:02:18.756Z,6.11
2023-01-28T15:04:45.285Z,6.10
2023-01-28T15:07:26.401Z,6.25
2023-01-28T15:10:05.031Z,6.25
2023-01-28T15:12:37.491Z,6.24
2023-01-28T15:15:25.979Z,6.19
2023-01-28T15:17:53.598Z,6.15
2023-01-28T15:20:23.440Z,6.11
2023-01-28T15:22:51.795Z,6.15
2023-01-28T15:25:20.802Z,6.13
2023-01-28T15:27:49.363Z,6.09
2023-01-28T15:30:31.417Z,6.10
2023-01-28T15:33:02.578Z,6.14
2023-01-28T15:35:29.095Z,6.11
2023-01-28T15:37:55.652Z,6.10
2023-01-28T15:40:23.203Z,6.09
2023-01-28T15:42:50.899Z,6.09
2023-01-28T15:45:19.842Z,6.08
2023-01-28T15:47:48.331Z,6.11
2023-01-28T15:50:22.573Z,6.13
2023-01-28T15:52:50.412Z,6.10
2023-01-28T15:55:42.069Z,6.14
2023-01-28T15:58:19.809Z,6.15
2023-01-28T16:00:48.193Z,6.15
2023-01-28T16:03:22.264Z,6.15
2023-01-28T16:06:04.306Z,6.32
2023-01-28T16:08:42.125Z,6.38
2023-01-28T16:11:10.158Z,6.32
2023-01-28T16:13:42.832Z,6.29
2023-01-28T16:16:10.311Z,6.29
2023-01-28T16:18:48.085Z,6.28
2023-01-28T16:21:22.532Z,6.27
2023-01-28T16:23:54.260Z,6.24
2023-01-28T16:26:25.281Z,6.22
2023-01-28T16:28:51.985Z,6.21
2023-01-28T16:31:19.439Z,6.21
2023-01-28T16:33:46.332Z,6.21
2023-01-28T16:36:14.515Z,6.19
2023-01-28T16:38:41.057Z,6.16
2023-01-28T16:41:29.591Z,6.19
2023-01-28T16:43:56.182Z,6.14
2023-01-28T16:46:27.575Z,6.13
2023-01-28T16:48:53.970Z,6.12
2023-01-28T16:51:20.846Z,6.11
2023-01-28T16:53:49.086Z,6.14
2023-01-28T16:56:43.987Z,6.14
2023-01-28T16:59:11.441Z,6.11
2023-01-28T17:01:38.294Z,6.10
2023-01-28T17:04:11.505Z,6.08
2023-01-28T17:06:39.271Z,6.06
2023-01-28T17:09:05.893Z,6.03
2023-01-28T17:11:33.327Z,6.01
2023-01-28T17:14:00.679Z,6.01
2023-01-28T17:16:27.571Z,6.02
2023-01-28T17:18:54.715Z,5.98
2023-01-28T17:21:21.372Z,5.99
2023-01-28T17:23:47.825Z,5.96
2023-01-28T17:26:16.107Z,6.01
2023-01-28T17:28:42.691Z,6.01
2023-01-28T17:31:14.170Z,6.00
2023-01-28T17:33:41.801Z,5.93
2023-01-28T17:36:08.952Z,5.91
2023-01-28T17:38:35.490Z,5.86
2023-01-28T17:41:03.390Z,5.82
2023-01-28T17:43:29.860Z,5.79
2023-01-28T17:45:56.318Z,5.73
2023-01-28T17:48:22.895Z,5.75
2023-01-28T17:50:49.357Z,5.77
2023-01-28T17:53:15.950Z,5.78
2023-01-28T17:55:42.368Z,5.75
2023-01-28T17:58:08.775Z,5.72
2023-01-28T18:00:35.178Z,5.73
2023-01-28T18:03:01.597Z,5.75
2023-01-28T18:05:28.093Z,5.77
2023-01-28T18:07:54.496Z,5.79
2023-01-28T18:10:21.273Z,5.81
2023-01-28T18:12:47.815Z,5.83
2023-01-28T18:15:14.746Z,5.84
2023-01-28T18:17:41.368Z,5.86
2023-01-28T18:20:08.547Z,5.85
2023-01-28T18:22:34.985Z,5.85
2023-01-28T18:25:01.372Z,5.84
2023-01-28T18:27:27.791Z,5.81
2023-01-28T18:29:54.267Z,5.78
2023-01-28T18:32:20.633Z,5.77
2023-01-28T18:34:47.047Z,5.77
2023-01-28T18:37:13.493Z,5.77
2023-01-28T18:39:40.017Z,5.75
2023-01-28T18:42:07.400Z,5.75
2023-01-28T18:44:33.881Z,5.73
2023-01-28T18:47:00.317Z,5.74
2023-01-28T18:49:26.714Z,5.74
2023-01-28T18:51:53.984Z,5.74
2023-01-28T18:54:20.467Z,5.73
2023-01-28T18:56:48.372Z,5.73
2023-01-28T18:59:15.506Z,5.74
2023-01-28T19:01:42.678Z,5.75
2023-01-28T19:04:10.363Z,5.75
2023-01-28T19:06:36.751Z,5.75
2023-01-28T19:09:06.472Z,5.75
2023-01-28T19:11:33.891Z,5.72
2023-01-28T19:14:00.568Z,5.74
2023-01-28T19:16:27.487Z,5.73
2023-01-28T19:18:56.035Z,5.72
2023-01-28T19:21:23.334Z,5.72
2023-01-28T19:23:55.311Z,5.72
2023-01-28T19:26:22.371Z,5.73
2023-01-28T19:28:49.523Z,5.73
2023-01-28T19:31:18.815Z,5.75
2023-01-28T19:33:46.157Z,5.75
2023-01-28T19:36:13.695Z,5.75
2023-01-28T19:38:40.880Z,5.75
2023-01-28T19:41:07.828Z,5.76
2023-01-28T19:43:35.433Z,5.75
2023-01-28T19:46:04.426Z,5.75
2023-01-28T19:48:31.862Z,5.75
2023-01-28T19:50:58.920Z,5.75
2023-01-28T19:53:25.430Z,5.74
2023-01-28T19:55:52.314Z,5.73
2023-01-28T19:58:18.988Z,5.71
2023-01-28T20:00:45.434Z,5.69
2023-01-28T20:03:12.737Z,5.69
2023-01-28T20:05:39.229Z,5.67
2023-01-28T20:08:05.919Z,5.66
2023-01-28T20:10:32.516Z,5.68
2023-01-28T20:12:58.898Z,5.70
2023-01-28T20:15:25.448Z,5.70
2023-01-28T20:17:51.920Z,5.70
2023-01-28T20:20:18.378Z,5.69
2023-01-28T20:22:44.886Z,5.69
2023-01-28T20:25:11.351Z,5.69
2023-01-28T20:27:37.756Z,5.69
2023-01-28T20:30:04.682Z,5.70
2023-01-28T20:32:31.198Z,5.71
2023-01-28T20:34:57.668Z,5.72
2023-01-28T20:37:24.169Z,5.67
2023-01-28T20:39:50.608Z,5.65
2023-01-28T20:42:17.052Z,5.64
2023-01-28T20:44:43.472Z,5.62
2023-01-28T20:47:09.909Z,5.62
2023-01-28T20:49:36.350Z,5.61
2023-01-28T20:52:02.763Z,5.59
2023-01-28T20:54:29.180Z,5.61
2023-01-28T20:56:57.215Z,5.59
2023-01-28T20:59:24.066Z,5.59
2023-01-28T21:01:50.739Z,5.61
2023-01-28T21:04:17.203Z,5.64
2023-01-28T21:06:43.625Z,5.64
2023-01-28T21:09:10.476Z,5.64
2023-01-28T21:11:36.841Z,5.64
2023-01-28T21:14:03.365Z,5.67
2023-01-28T21:16:29.941Z,5.65
2023-01-28T21:18:56.387Z,5.67
2023-01-28T21:21:26.215Z,5.71
2023-01-28T21:23:58.964Z,5.69
2023-01-28T21:26:25.930Z,5.68
2023-01-28T21:28:52.390Z,5.67
2023-01-28T21:31:21.844Z,5.69
2023-01-28T21:33:50.247Z,5.71
2023-01-28T21:36:17.354Z,5.72
2023-01-28T21:38:44.018Z,5.71
2023-01-28T21:41:10.815Z,5.72
2023-01-28T21:43:37.390Z,5.68
2023-01-28T21:46:04.278Z,5.67
2023-01-28T21:48:30.762Z,5.67
2023-01-28T21:51:23.369Z,5.67
2023-01-28T21:53:49.891Z,5.65
2023-01-28T21:56:16.349Z,5.69
2023-01-28T21:59:01.474Z,5.69
2023-01-28T22:01:27.924Z,5.69
2023-01-28T22:03:54.381Z,5.71
2023-01-28T22:06:20.756Z,5.72
2023-01-28T22:08:47.167Z,5.73
2023-01-28T22:11:13.710Z,5.74
2023-01-28T22:13:40.169Z,5.68
2023-01-28T22:16:07.048Z,5.65
2023-01-28T22:18:33.565Z,5.62
2023-01-28T22:21:08.268Z,5.63
2023-01-28T22:23:35.428Z,5.63
2023-01-28T22:26:02.190Z,5.62
2023-01-28T22:28:29.207Z,5.62
2023-01-28T22:31:04.974Z,5.64
2023-01-28T22:33:31.547Z,5.64
2023-01-28T22:35:57.911Z,5.58
2023-01-28T22:38:24.342Z,5.53
2023-01-28T22:40:50.794Z,5.50
2023-01-28T22:43:18.164Z,5.47
2023-01-28T22:45:44.763Z,5.39
2023-01-28T22:48:11.217Z,5.31
2023-01-28T22:50:37.747Z,5.32
2023-01-28T22:53:04.146Z,5.32
2023-01-28T22:55:32.086Z,5.34
2023-01-28T22:57:58.514Z,5.35
2023-01-28T23:00:27.906Z,5.36
2023-01-28T23:02:54.623Z,5.32
2023-01-28T23:05:21.145Z,5.29
2023-01-28T23:07:47.559Z,5.32
2023-01-28T23:10:14.695Z,5.35
2023-01-28T23:12:41.428Z,5.31
2023-01-28T23:15:28.085Z,5.29
2023-01-28T23:18:12.928Z,5.33
2023-01-28T23:20:58.948Z,5.34
2023-01-28T23:23:44.239Z,5.34
2023-01-28T23:26:10.627Z,5.36
2023-01-28T23:28:37.064Z,5.36
2023-01-28T23:31:03.582Z,5.35
2023-01-28T23:33:30.110Z,5.33
2023-01-28T23:35:56.551Z,5.31
2023-01-28T23:38:22.997Z,5.28
2023-01-28T23:40:49.358Z,5.30
2023-01-28T23:43:15.822Z,5.28
2023-01-28T23:45:42.300Z,5.29
2023-01-28T23:48:08.806Z,5.31
2023-01-28T23:50:35.884Z,5.32
2023-01-28T23:53:02.342Z,5.32
2023-01-28T23:55:28.791Z,5.27
2023-01-28T23:57:55.199Z,5.29
